sensor_id;sensor_type;location;lat;lon;timestamp;P1;durP1;ratioP1;P2;durP2;ratioP2
65717;SDS011;52445;52.466;-1.016;2023-04-01T00:02:05;3.90;;;2.25;;
65717;SDS011;52445;52.466;-1.016;2023-04-01T00:04:32;6.35;;;1.70;;
65717;SDS011;52445;52.466;-1.016;2023-04-01T00:06:59;5.18;;;2.88;;
65717;SDS011;52445;52.466;-1.016;2023-04-01T00:09:26;6.57;;;3.90;;
65717;SDS011;52445;52.466;-1.016;2023-04-01T00:11:55;5.53;;;2.42;;
65717;SDS011;52445;52.466;-1.016;2023-04-01T00:14:21;5.90;;;2.65;;
65717;SDS011;52445;52.466;-1.016;2023-04-01T00:16:48;6.38;;;2.25;;
65717;SDS011;52445;52.466;-1.016;2023-04-01T00:19:15;3.17;;;1.95;;
65717;SDS011;52445;52.466;-1.016;2023-04-01T00:21:41;3.00;;;1.83;;
65717;SDS011;52445;52.466;-1.016;2023-04-01T00:24:08;4.78;;;1.98;;
65717;SDS011;52445;52.466;-1.016;2023-04-01T00:26:34;3.65;;;1.75;;
65717;SDS011;52445;52.466;-1.016;2023-04-01T00:29:01;3.17;;;1.55;;
65717;SDS011;52445;52.466;-1.016;2023-04-01T00:31:28;2.45;;;1.25;;
65717;SDS011;52445;52.466;-1.016;2023-04-01T00:33:56;3.70;;;1.27;;
65717;SDS011;52445;52.466;-1.016;2023-04-01T00:36:23;3.22;;;1.77;;
65717;SDS011;52445;52.466;-1.016;2023-04-01T00:38:50;2.80;;;1.35;;
65717;SDS011;52445;52.466;-1.016;2023-04-01T00:41:18;4.82;;;2.05;;
65717;SDS011;52445;52.466;-1.016;2023-04-01T00:43:46;4.15;;;1.27;;
65717;SDS011;52445;52.466;-1.016;2023-04-01T00:46:15;2.88;;;1.60;;
65717;SDS011;52445;52.466;-1.016;2023-04-01T00:48:43;5.47;;;2.53;;
65717;SDS011;52445;52.466;-1.016;2023-04-01T00:51:19;5.63;;;2.22;;
65717;SDS011;52445;52.466;-1.016;2023-04-01T00:53:50;5.43;;;2.45;;
65717;SDS011;52445;52.466;-1.016;2023-04-01T00:56:21;5.20;;;1.58;;
65717;SDS011;52445;52.466;-1.016;2023-04-01T00:58:57;3.25;;;1.80;;
65717;SDS011;52445;52.466;-1.016;2023-04-01T01:01:28;5.35;;;2.03;;
65717;SDS011;52445;52.466;-1.016;2023-04-01T01:03:56;4.40;;;2.50;;
65717;SDS011;52445;52.466;-1.016;2023-04-01T01:16:52;8.27;;;3.90;;
65717;SDS011;52445;52.466;-1.016;2023-04-01T01:24:56;7.95;;;4.00;;
65717;SDS011;52445;52.466;-1.016;2023-04-01T01:27:39;5.95;;;3.50;;
65717;SDS011;52445;52.466;-1.016;2023-04-01T01:30:19;7.65;;;3.85;;
65717;SDS011;52445;52.466;-1.016;2023-04-01T01:38:13;9.65;;;2.97;;
65717;SDS011;52445;52.466;-1.016;2023-04-01T01:40:43;4.30;;;2.38;;
65717;SDS011;52445;52.466;-1.016;2023-04-01T01:43:14;9.13;;;3.85;;
65717;SDS011;52445;52.466;-1.016;2023-04-01T01:45:47;8.65;;;3.38;;
65717;SDS011;52445;52.466;-1.016;2023-04-01T01:48:17;7.13;;;2.72;;
65717;SDS011;52445;52.466;-1.016;2023-04-01T01:50:46;8.13;;;3.47;;
65717;SDS011;52445;52.466;-1.016;2023-04-01T01:53:14;8.02;;;3.10;;
65717;SDS011;52445;52.466;-1.016;2023-04-01T01:55:42;12.55;;;3.83;;
65717;SDS011;52445;52.466;-1.016;2023-04-01T02:00:57;9.10;;;3.58;;
65717;SDS011;52445;52.466;-1.016;2023-04-01T02:03:30;9.38;;;3.63;;
65717;SDS011;52445;52.466;-1.016;2023-04-01T02:06:01;10.00;;;3.58;;
65717;SDS011;52445;52.466;-1.016;2023-04-01T02:08:33;9.25;;;3.58;;
65717;SDS011;52445;52.466;-1.016;2023-04-01T02:11:05;11.70;;;3.63;;
65717;SDS011;52445;52.466;-1.016;2023-04-01T02:13:37;11.90;;;4.38;;
65717;SDS011;52445;52.466;-1.016;2023-04-01T02:16:24;10.23;;;3.95;;
65717;SDS011;52445;52.466;-1.016;2023-04-01T02:18:56;11.23;;;4.85;;
65717;SDS011;52445;52.466;-1.016;2023-04-01T02:21:26;11.30;;;4.03;;
65717;SDS011;52445;52.466;-1.016;2023-04-01T02:23:56;6.10;;;2.90;;
65717;SDS011;52445;52.466;-1.016;2023-04-01T02:26:25;7.82;;;3.03;;
65717;SDS011;52445;52.466;-1.016;2023-04-01T02:28:53;4.78;;;2.53;;
65717;SDS011;52445;52.466;-1.016;2023-04-01T02:31:21;5.95;;;2.42;;
65717;SDS011;52445;52.466;-1.016;2023-04-01T02:33:49;6.72;;;2.08;;
65717;SDS011;52445;52.466;-1.016;2023-04-01T02:36:16;6.65;;;2.72;;
65717;SDS011;52445;52.466;-1.016;2023-04-01T02:38:44;6.20;;;2.50;;
65717;SDS011;52445;52.466;-1.016;2023-04-01T02:41:12;6.90;;;2.15;;
65717;SDS011;52445;52.466;-1.016;2023-04-01T02:43:39;5.13;;;2.03;;
65717;SDS011;52445;52.466;-1.016;2023-04-01T02:46:06;5.90;;;2.28;;
65717;SDS011;52445;52.466;-1.016;2023-04-01T02:48:33;5.20;;;2.00;;
65717;SDS011;52445;52.466;-1.016;2023-04-01T02:50:59;5.05;;;2.00;;
65717;SDS011;52445;52.466;-1.016;2023-04-01T02:53:26;5.18;;;2.47;;
65717;SDS011;52445;52.466;-1.016;2023-04-01T02:55:53;5.40;;;2.47;;
65717;SDS011;52445;52.466;-1.016;2023-04-01T02:58:19;6.15;;;2.17;;
65717;SDS011;52445;52.466;-1.016;2023-04-01T03:00:46;5.88;;;2.58;;
65717;SDS011;52445;52.466;-1.016;2023-04-01T03:03:13;8.57;;;2.85;;
65717;SDS011;52445;52.466;-1.016;2023-04-01T03:05:40;7.63;;;2.88;;
65717;SDS011;52445;52.466;-1.016;2023-04-01T03:08:06;8.00;;;2.50;;
65717;SDS011;52445;52.466;-1.016;2023-04-01T03:10:33;7.88;;;2.70;;
65717;SDS011;52445;52.466;-1.016;2023-04-01T03:13:00;6.55;;;1.90;;
65717;SDS011;52445;52.466;-1.016;2023-04-01T03:15:27;3.53;;;2.60;;
65717;SDS011;52445;52.466;-1.016;2023-04-01T03:17:54;10.30;;;3.28;;
65717;SDS011;52445;52.466;-1.016;2023-04-01T03:20:20;7.20;;;2.13;;
65717;SDS011;52445;52.466;-1.016;2023-04-01T03:22:47;6.65;;;3.47;;
65717;SDS011;52445;52.466;-1.016;2023-04-01T03:25:14;6.18;;;2.65;;
65717;SDS011;52445;52.466;-1.016;2023-04-01T03:27:40;6.38;;;2.40;;
65717;SDS011;52445;52.466;-1.016;2023-04-01T03:30:07;6.82;;;3.22;;
65717;SDS011;52445;52.466;-1.016;2023-04-01T03:32:35;8.43;;;2.30;;
65717;SDS011;52445;52.466;-1.016;2023-04-01T03:35:02;9.90;;;2.58;;
65717;SDS011;52445;52.466;-1.016;2023-04-01T03:37:29;7.85;;;2.25;;
65717;SDS011;52445;52.466;-1.016;2023-04-01T03:39:55;4.22;;;2.00;;
65717;SDS011;52445;52.466;-1.016;2023-04-01T03:42:22;6.63;;;2.05;;
65717;SDS011;52445;52.466;-1.016;2023-04-01T03:44:48;7.90;;;1.98;;
65717;SDS011;52445;52.466;-1.016;2023-04-01T03:47:15;5.57;;;3.22;;
65717;SDS011;52445;52.466;-1.016;2023-04-01T03:49:42;4.90;;;2.05;;
65717;SDS011;52445;52.466;-1.016;2023-04-01T03:52:10;8.05;;;4.22;;
65717;SDS011;52445;52.466;-1.016;2023-04-01T03:54:37;6.55;;;3.28;;
65717;SDS011;52445;52.466;-1.016;2023-04-01T03:57:04;8.00;;;2.28;;
65717;SDS011;52445;52.466;-1.016;2023-04-01T03:59:31;5.13;;;2.20;;
65717;SDS011;52445;52.466;-1.016;2023-04-01T04:01:58;5.10;;;1.90;;
65717;SDS011;52445;52.466;-1.016;2023-04-01T04:04:25;6.47;;;1.85;;
65717;SDS011;52445;52.466;-1.016;2023-04-01T04:06:52;3.10;;;1.92;;
65717;SDS011;52445;52.466;-1.016;2023-04-01T04:09:19;7.68;;;2.40;;
65717;SDS011;52445;52.466;-1.016;2023-04-01T04:11:46;4.35;;;2.35;;
65717;SDS011;52445;52.466;-1.016;2023-04-01T04:14:13;3.95;;;2.08;;
65717;SDS011;52445;52.466;-1.016;2023-04-01T04:16:39;2.17;;;1.00;;
65717;SDS011;52445;52.466;-1.016;2023-04-01T04:19:06;3.38;;;1.48;;
65717;SDS011;52445;52.466;-1.016;2023-04-01T04:21:33;2.25;;;1.02;;
65717;SDS011;52445;52.466;-1.016;2023-04-01T04:24:00;3.92;;;1.75;;
65717;SDS011;52445;52.466;-1.016;2023-04-01T04:26:27;8.82;;;2.45;;
65717;SDS011;52445;52.466;-1.016;2023-04-01T04:28:53;6.60;;;1.92;;
65717;SDS011;52445;52.466;-1.016;2023-04-01T04:31:22;5.63;;;2.78;;
65717;SDS011;52445;52.466;-1.016;2023-04-01T04:33:49;6.40;;;2.08;;
65717;SDS011;52445;52.466;-1.016;2023-04-01T04:36:17;6.35;;;2.55;;
65717;SDS011;52445;52.466;-1.016;2023-04-01T04:38:45;8.48;;;3.17;;
65717;SDS011;52445;52.466;-1.016;2023-04-01T04:41:13;8.05;;;2.95;;
65717;SDS011;52445;52.466;-1.016;2023-04-01T04:43:41;6.47;;;2.78;;
65717;SDS011;52445;52.466;-1.016;2023-04-01T04:46:09;3.35;;;1.52;;
65717;SDS011;52445;52.466;-1.016;2023-04-01T04:48:36;6.43;;;2.20;;
65717;SDS011;52445;52.466;-1.016;2023-04-01T04:51:03;5.90;;;2.35;;
65717;SDS011;52445;52.466;-1.016;2023-04-01T04:53:29;6.05;;;1.88;;
65717;SDS011;52445;52.466;-1.016;2023-04-01T04:55:56;5.35;;;2.17;;
65717;SDS011;52445;52.466;-1.016;2023-04-01T04:58:23;5.82;;;2.45;;
65717;SDS011;52445;52.466;-1.016;2023-04-01T05:00:49;5.90;;;2.60;;
65717;SDS011;52445;52.466;-1.016;2023-04-01T05:03:16;6.22;;;2.30;;
65717;SDS011;52445;52.466;-1.016;2023-04-01T05:05:51;10.60;;;2.97;;
65717;SDS011;52445;52.466;-1.016;2023-04-01T05:08:18;6.93;;;3.35;;
65717;SDS011;52445;52.466;-1.016;2023-04-01T05:10:46;9.75;;;2.92;;
65717;SDS011;52445;52.466;-1.016;2023-04-01T05:13:12;7.53;;;2.80;;
65717;SDS011;52445;52.466;-1.016;2023-04-01T05:15:39;8.10;;;2.72;;
65717;SDS011;52445;52.466;-1.016;2023-04-01T05:18:06;7.88;;;2.50;;
65717;SDS011;52445;52.466;-1.016;2023-04-01T05:20:33;6.43;;;2.35;;
65717;SDS011;52445;52.466;-1.016;2023-04-01T05:22:59;12.10;;;3.47;;
65717;SDS011;52445;52.466;-1.016;2023-04-01T05:25:26;6.40;;;2.72;;
65717;SDS011;52445;52.466;-1.016;2023-04-01T05:27:53;5.32;;;2.22;;
65717;SDS011;52445;52.466;-1.016;2023-04-01T05:30:20;6.90;;;3.63;;
65717;SDS011;52445;52.466;-1.016;2023-04-01T05:32:46;5.47;;;2.80;;
65717;SDS011;52445;52.466;-1.016;2023-04-01T05:35:13;5.72;;;2.10;;
65717;SDS011;52445;52.466;-1.016;2023-04-01T05:37:40;5.25;;;2.50;;
65717;SDS011;52445;52.466;-1.016;2023-04-01T05:40:07;3.60;;;1.83;;
65717;SDS011;52445;52.466;-1.016;2023-04-01T05:42:34;6.18;;;2.13;;
65717;SDS011;52445;52.466;-1.016;2023-04-01T05:45:03;4.35;;;1.60;;
65717;SDS011;52445;52.466;-1.016;2023-04-01T05:47:30;4.15;;;2.63;;
65717;SDS011;52445;52.466;-1.016;2023-04-01T05:49:57;5.43;;;1.75;;
65717;SDS011;52445;52.466;-1.016;2023-04-01T05:52:24;8.20;;;1.98;;
65717;SDS011;52445;52.466;-1.016;2023-04-01T05:54:50;3.97;;;1.60;;
65717;SDS011;52445;52.466;-1.016;2023-04-01T05:57:17;5.20;;;1.88;;
65717;SDS011;52445;52.466;-1.016;2023-04-01T05:59:43;4.60;;;1.35;;
65717;SDS011;52445;52.466;-1.016;2023-04-01T06:02:11;4.18;;;1.55;;
65717;SDS011;52445;52.466;-1.016;2023-04-01T06:04:39;2.60;;;1.15;;
65717;SDS011;52445;52.466;-1.016;2023-04-01T06:07:14;3.80;;;1.75;;
65717;SDS011;52445;52.466;-1.016;2023-04-01T06:09:43;3.70;;;2.38;;
65717;SDS011;52445;52.466;-1.016;2023-04-01T06:14:53;4.13;;;2.88;;
65717;SDS011;52445;52.466;-1.016;2023-04-01T06:20:30;6.28;;;1.30;;
65717;SDS011;52445;52.466;-1.016;2023-04-01T06:23:10;2.63;;;1.15;;
65717;SDS011;52445;52.466;-1.016;2023-04-01T06:26:11;6.82;;;3.17;;
65717;SDS011;52445;52.466;-1.016;2023-04-01T06:28:56;5.18;;;2.63;;
65717;SDS011;52445;52.466;-1.016;2023-04-01T06:37:20;4.00;;;1.67;;
65717;SDS011;52445;52.466;-1.016;2023-04-01T06:51:01;2.45;;;1.20;;
65717;SDS011;52445;52.466;-1.016;2023-04-01T06:53:41;5.70;;;2.80;;
65717;SDS011;52445;52.466;-1.016;2023-04-01T06:56:23;4.38;;;1.20;;
65717;SDS011;52445;52.466;-1.016;2023-04-01T06:59:12;2.45;;;2.15;;
65717;SDS011;52445;52.466;-1.016;2023-04-01T07:06:58;4.53;;;3.22;;
65717;SDS011;52445;52.466;-1.016;2023-04-01T07:09:31;3.72;;;1.08;;
65717;SDS011;52445;52.466;-1.016;2023-04-01T07:12:06;4.57;;;2.80;;
65717;SDS011;52445;52.466;-1.016;2023-04-01T07:14:56;5.13;;;3.22;;
65717;SDS011;52445;52.466;-1.016;2023-04-01T07:17:28;3.38;;;2.65;;
65717;SDS011;52445;52.466;-1.016;2023-04-01T07:20:02;3.35;;;2.90;;
65717;SDS011;52445;52.466;-1.016;2023-04-01T07:22:39;4.13;;;2.30;;
65717;SDS011;52445;52.466;-1.016;2023-04-01T07:25:12;3.45;;;2.90;;
65717;SDS011;52445;52.466;-1.016;2023-04-01T07:27:49;3.03;;;1.58;;
65717;SDS011;52445;52.466;-1.016;2023-04-01T07:30:17;2.63;;;1.05;;
65717;SDS011;52445;52.466;-1.016;2023-04-01T07:35:27;2.85;;;1.20;;
65717;SDS011;52445;52.466;-1.016;2023-04-01T07:38:09;3.53;;;1.35;;
65717;SDS011;52445;52.466;-1.016;2023-04-01T07:46:03;3.40;;;1.30;;
65717;SDS011;52445;52.466;-1.016;2023-04-01T07:54:08;2.85;;;1.38;;
65717;SDS011;52445;52.466;-1.016;2023-04-01T07:59:31;6.95;;;3.40;;
65717;SDS011;52445;52.466;-1.016;2023-04-01T08:04:50;5.57;;;1.60;;
65717;SDS011;52445;52.466;-1.016;2023-04-01T08:07:47;4.28;;;1.25;;
65717;SDS011;52445;52.466;-1.016;2023-04-01T08:18:44;2.22;;;2.00;;
65717;SDS011;52445;52.466;-1.016;2023-04-01T08:21:20;4.70;;;2.92;;
65717;SDS011;52445;52.466;-1.016;2023-04-01T08:23:52;2.75;;;1.05;;
65717;SDS011;52445;52.466;-1.016;2023-04-01T08:26:32;3.65;;;3.03;;
65717;SDS011;52445;52.466;-1.016;2023-04-01T08:29:07;4.68;;;3.08;;
65717;SDS011;52445;52.466;-1.016;2023-04-01T08:34:19;3.10;;;1.33;;
65717;SDS011;52445;52.466;-1.016;2023-04-01T08:36:51;4.03;;;1.73;;
65717;SDS011;52445;52.466;-1.016;2023-04-01T08:39:31;3.05;;;1.50;;
65717;SDS011;52445;52.466;-1.016;2023-04-01T08:45:10;4.28;;;1.77;;
65717;SDS011;52445;52.466;-1.016;2023-04-01T08:53:35;8.02;;;3.22;;
65717;SDS011;52445;52.466;-1.016;2023-04-01T08:56:47;5.97;;;3.22;;
65717;SDS011;52445;52.466;-1.016;2023-04-01T08:59:27;4.95;;;3.85;;
65717;SDS011;52445;52.466;-1.016;2023-04-01T09:11:15;2.15;;;1.00;;
65717;SDS011;52445;52.466;-1.016;2023-04-01T09:19:32;1.92;;;0.98;;
65717;SDS011;52445;52.466;-1.016;2023-04-01T09:27:29;5.68;;;3.22;;
65717;SDS011;52445;52.466;-1.016;2023-04-01T09:36:46;8.32;;;1.88;;
65717;SDS011;52445;52.466;-1.016;2023-04-01T09:39:17;8.27;;;3.55;;
65717;SDS011;52445;52.466;-1.016;2023-04-01T09:42:06;3.47;;;1.58;;
65717;SDS011;52445;52.466;-1.016;2023-04-01T09:50:38;3.88;;;2.50;;
65717;SDS011;52445;52.466;-1.016;2023-04-01T09:53:36;4.60;;;1.30;;
65717;SDS011;52445;52.466;-1.016;2023-04-01T10:43:40;4.13;;;1.13;;
65717;SDS011;52445;52.466;-1.016;2023-04-01T10:55:12;3.22;;;2.35;;
65717;SDS011;52445;52.466;-1.016;2023-04-01T11:01:05;2.88;;;1.58;;
65717;SDS011;52445;52.466;-1.016;2023-04-01T11:20:56;3.35;;;2.92;;
65717;SDS011;52445;52.466;-1.016;2023-04-01T11:23:59;3.42;;;3.03;;
65717;SDS011;52445;52.466;-1.016;2023-04-01T11:31:56;4.63;;;2.10;;
65717;SDS011;52445;52.466;-1.016;2023-04-01T11:42:54;6.25;;;3.60;;
65717;SDS011;52445;52.466;-1.016;2023-04-01T11:51:04;5.32;;;3.33;;
65717;SDS011;52445;52.466;-1.016;2023-04-01T11:53:47;5.00;;;1.52;;
65717;SDS011;52445;52.466;-1.016;2023-04-01T11:59:29;6.13;;;3.78;;
65717;SDS011;52445;52.466;-1.016;2023-04-01T12:05:12;3.05;;;1.67;;
65717;SDS011;52445;52.466;-1.016;2023-04-01T12:07:53;1.77;;;1.20;;
65717;SDS011;52445;52.466;-1.016;2023-04-01T12:18:46;4.28;;;2.33;;
65717;SDS011;52445;52.466;-1.016;2023-04-01T12:21:30;4.22;;;2.42;;
65717;SDS011;52445;52.466;-1.016;2023-04-01T12:27:06;5.03;;;2.92;;
65717;SDS011;52445;52.466;-1.016;2023-04-01T12:38:20;9.55;;;1.75;;
65717;SDS011;52445;52.466;-1.016;2023-04-01T12:40:54;3.80;;;1.50;;
65717;SDS011;52445;52.466;-1.016;2023-04-01T12:46:15;3.55;;;2.28;;
65717;SDS011;52445;52.466;-1.016;2023-04-01T12:49:15;3.33;;;2.35;;
65717;SDS011;52445;52.466;-1.016;2023-04-01T12:54:57;4.22;;;2.20;;
65717;SDS011;52445;52.466;-1.016;2023-04-01T12:57:45;3.00;;;1.40;;
65717;SDS011;52445;52.466;-1.016;2023-04-01T13:00:30;4.85;;;3.40;;
65717;SDS011;52445;52.466;-1.016;2023-04-01T13:03:15;4.57;;;3.40;;
65717;SDS011;52445;52.466;-1.016;2023-04-01T13:06:07;5.00;;;1.83;;
65717;SDS011;52445;52.466;-1.016;2023-04-01T13:25:51;4.72;;;2.90;;
65717;SDS011;52445;52.466;-1.016;2023-04-01T13:28:30;4.95;;;3.38;;
65717;SDS011;52445;52.466;-1.016;2023-04-01T13:33:43;4.72;;;2.70;;
65717;SDS011;52445;52.466;-1.016;2023-04-01T13:44:53;6.15;;;3.10;;
65717;SDS011;52445;52.466;-1.016;2023-04-01T14:02:03;4.63;;;2.30;;
65717;SDS011;52445;52.466;-1.016;2023-04-01T14:18:32;4.93;;;1.50;;
65717;SDS011;52445;52.466;-1.016;2023-04-01T14:21:11;4.00;;;1.83;;
65717;SDS011;52445;52.466;-1.016;2023-04-01T14:23:49;3.28;;;2.97;;
65717;SDS011;52445;52.466;-1.016;2023-04-01T14:27:09;4.18;;;3.35;;
65717;SDS011;52445;52.466;-1.016;2023-04-01T14:34:53;4.15;;;2.75;;
65717;SDS011;52445;52.466;-1.016;2023-04-01T14:37:55;3.65;;;2.50;;
65717;SDS011;52445;52.466;-1.016;2023-04-01T14:49:01;1.10;;;0.85;;
65717;SDS011;52445;52.466;-1.016;2023-04-01T14:51:48;3.10;;;1.42;;
65717;SDS011;52445;52.466;-1.016;2023-04-01T14:54:19;3.45;;;1.27;;
65717;SDS011;52445;52.466;-1.016;2023-04-01T14:57:12;2.13;;;1.15;;
65717;SDS011;52445;52.466;-1.016;2023-04-01T14:59:51;2.45;;;1.63;;
65717;SDS011;52445;52.466;-1.016;2023-04-01T15:03:00;4.53;;;1.80;;
65717;SDS011;52445;52.466;-1.016;2023-04-01T15:10:56;2.28;;;1.27;;
65717;SDS011;52445;52.466;-1.016;2023-04-01T15:25:03;3.63;;;1.00;;
65717;SDS011;52445;52.466;-1.016;2023-04-01T15:30:23;1.95;;;1.20;;
65717;SDS011;52445;52.466;-1.016;2023-04-01T15:41:39;2.15;;;1.95;;
65717;SDS011;52445;52.466;-1.016;2023-04-01T15:47:32;3.25;;;0.77;;
65717;SDS011;52445;52.466;-1.016;2023-04-01T15:52:39;3.42;;;1.10;;
65717;SDS011;52445;52.466;-1.016;2023-04-01T15:55:18;2.47;;;1.15;;
65717;SDS011;52445;52.466;-1.016;2023-04-01T15:57:55;2.83;;;1.55;;
65717;SDS011;52445;52.466;-1.016;2023-04-01T16:06:24;2.33;;;1.13;;
65717;SDS011;52445;52.466;-1.016;2023-04-01T16:14:38;1.50;;;0.98;;
65717;SDS011;52445;52.466;-1.016;2023-04-01T16:17:25;3.75;;;2.72;;
65717;SDS011;52445;52.466;-1.016;2023-04-01T16:22:45;1.95;;;1.23;;
65717;SDS011;52445;52.466;-1.016;2023-04-01T16:25:35;1.40;;;0.80;;
65717;SDS011;52445;52.466;-1.016;2023-04-01T16:36:20;2.47;;;1.45;;
65717;SDS011;52445;52.466;-1.016;2023-04-01T16:41:57;1.52;;;0.88;;
65717;SDS011;52445;52.466;-1.016;2023-04-01T16:44:47;2.13;;;1.00;;
65717;SDS011;52445;52.466;-1.016;2023-04-01T16:47:23;1.30;;;0.60;;
65717;SDS011;52445;52.466;-1.016;2023-04-01T16:49:59;2.25;;;0.70;;
65717;SDS011;52445;52.466;-1.016;2023-04-01T16:55:19;2.30;;;1.38;;
65717;SDS011;52445;52.466;-1.016;2023-04-01T16:57:50;2.53;;;0.82;;
65717;SDS011;52445;52.466;-1.016;2023-04-01T17:00:31;2.28;;;0.80;;
65717;SDS011;52445;52.466;-1.016;2023-04-01T17:03:13;3.50;;;2.15;;
65717;SDS011;52445;52.466;-1.016;2023-04-01T17:11:26;4.15;;;1.17;;
65717;SDS011;52445;52.466;-1.016;2023-04-01T17:14:01;1.80;;;0.70;;
65717;SDS011;52445;52.466;-1.016;2023-04-01T17:19:28;2.00;;;1.27;;
65717;SDS011;52445;52.466;-1.016;2023-04-01T17:22:13;2.83;;;2.38;;
65717;SDS011;52445;52.466;-1.016;2023-04-01T17:25:02;3.03;;;2.50;;
65717;SDS011;52445;52.466;-1.016;2023-04-01T17:30:36;2.13;;;1.20;;
65717;SDS011;52445;52.466;-1.016;2023-04-01T17:50:02;2.35;;;2.10;;
65717;SDS011;52445;52.466;-1.016;2023-04-01T17:55:32;4.20;;;1.25;;
65717;SDS011;52445;52.466;-1.016;2023-04-01T17:58:21;2.58;;;1.27;;
65717;SDS011;52445;52.466;-1.016;2023-04-01T18:01:01;2.70;;;1.50;;
65717;SDS011;52445;52.466;-1.016;2023-04-01T18:06:32;4.50;;;3.22;;
65717;SDS011;52445;52.466;-1.016;2023-04-01T18:09:25;2.58;;;1.35;;
65717;SDS011;52445;52.466;-1.016;2023-04-01T18:23:33;3.22;;;2.55;;
65717;SDS011;52445;52.466;-1.016;2023-04-01T18:26:12;9.80;;;3.15;;
65717;SDS011;52445;52.466;-1.016;2023-04-01T18:28:50;4.50;;;2.13;;
65717;SDS011;52445;52.466;-1.016;2023-04-01T18:31:24;3.42;;;1.60;;
65717;SDS011;52445;52.466;-1.016;2023-04-01T18:39:23;1.83;;;1.58;;
65717;SDS011;52445;52.466;-1.016;2023-04-01T18:42:06;2.25;;;1.80;;
65717;SDS011;52445;52.466;-1.016;2023-04-01T18:47:40;4.35;;;2.05;;
65717;SDS011;52445;52.466;-1.016;2023-04-01T18:50:28;3.55;;;1.17;;
65717;SDS011;52445;52.466;-1.016;2023-04-01T18:55:52;4.55;;;0.80;;
65717;SDS011;52445;52.466;-1.016;2023-04-01T18:58:26;2.38;;;2.00;;
65717;SDS011;52445;52.466;-1.016;2023-04-01T19:04:26;3.95;;;2.33;;
65717;SDS011;52445;52.466;-1.016;2023-04-01T19:06:59;3.85;;;3.50;;
65717;SDS011;52445;52.466;-1.016;2023-04-01T19:20:36;2.28;;;1.00;;
65717;SDS011;52445;52.466;-1.016;2023-04-01T19:26:14;3.63;;;2.05;;
65717;SDS011;52445;52.466;-1.016;2023-04-01T19:31:30;4.70;;;2.30;;
65717;SDS011;52445;52.466;-1.016;2023-04-01T19:34:28;2.97;;;2.67;;
65717;SDS011;52445;52.466;-1.016;2023-04-01T19:37:21;2.20;;;1.27;;
65717;SDS011;52445;52.466;-1.016;2023-04-01T19:42:34;2.00;;;1.23;;
65717;SDS011;52445;52.466;-1.016;2023-04-01T19:48:02;3.22;;;1.27;;
65717;SDS011;52445;52.466;-1.016;2023-04-01T19:50:58;3.20;;;1.48;;
65717;SDS011;52445;52.466;-1.016;2023-04-01T19:56:39;4.18;;;1.35;;
65717;SDS011;52445;52.466;-1.016;2023-04-01T20:01:59;3.35;;;2.42;;
65717;SDS011;52445;52.466;-1.016;2023-04-01T20:04:51;3.30;;;2.47;;
65717;SDS011;52445;52.466;-1.016;2023-04-01T20:07:24;3.33;;;2.28;;
65717;SDS011;52445;52.466;-1.016;2023-04-01T20:09:58;4.63;;;2.28;;
65717;SDS011;52445;52.466;-1.016;2023-04-01T20:20:53;2.63;;;1.50;;
65717;SDS011;52445;52.466;-1.016;2023-04-01T20:23:30;2.45;;;1.05;;
65717;SDS011;52445;52.466;-1.016;2023-04-01T20:26:09;2.47;;;1.15;;
65717;SDS011;52445;52.466;-1.016;2023-04-01T20:31:20;2.38;;;1.00;;
65717;SDS011;52445;52.466;-1.016;2023-04-01T20:33:57;1.38;;;0.63;;
65717;SDS011;52445;52.466;-1.016;2023-04-01T20:39:20;1.48;;;0.70;;
65717;SDS011;52445;52.466;-1.016;2023-04-01T20:45:17;3.40;;;2.63;;
65717;SDS011;52445;52.466;-1.016;2023-04-01T20:51:18;2.92;;;2.60;;
65717;SDS011;52445;52.466;-1.016;2023-04-01T20:56:31;2.47;;;1.02;;
65717;SDS011;52445;52.466;-1.016;2023-04-01T20:59:14;2.97;;;1.75;;
65717;SDS011;52445;52.466;-1.016;2023-04-01T21:05:04;4.47;;;3.03;;
65717;SDS011;52445;52.466;-1.016;2023-04-01T21:15:37;4.05;;;1.55;;
65717;SDS011;52445;52.466;-1.016;2023-04-01T21:21:05;3.28;;;2.15;;
65717;SDS011;52445;52.466;-1.016;2023-04-01T21:26:52;3.47;;;2.65;;
65717;SDS011;52445;52.466;-1.016;2023-04-01T21:41:20;3.13;;;2.17;;
65717;SDS011;52445;52.466;-1.016;2023-04-01T21:46:46;2.17;;;0.82;;
65717;SDS011;52445;52.466;-1.016;2023-04-01T22:03:30;2.60;;;2.38;;
65717;SDS011;52445;52.466;-1.016;2023-04-01T22:06:09;1.33;;;0.80;;
65717;SDS011;52445;52.466;-1.016;2023-04-01T22:11:41;2.13;;;0.93;;
65717;SDS011;52445;52.466;-1.016;2023-04-01T22:14:19;1.90;;;1.25;;
65717;SDS011;52445;52.466;-1.016;2023-04-01T22:22:31;2.45;;;0.80;;
65717;SDS011;52445;52.466;-1.016;2023-04-01T22:27:54;2.63;;;1.60;;
65717;SDS011;52445;52.466;-1.016;2023-04-01T22:30:29;4.45;;;2.30;;
65717;SDS011;52445;52.466;-1.016;2023-04-01T22:35:44;6.07;;;2.58;;
65717;SDS011;52445;52.466;-1.016;2023-04-01T22:43:54;8.60;;;4.57;;
65717;SDS011;52445;52.466;-1.016;2023-04-01T22:51:46;8.57;;;3.55;;
65717;SDS011;52445;52.466;-1.016;2023-04-01T22:57:16;6.82;;;2.25;;
65717;SDS011;52445;52.466;-1.016;2023-04-01T23:00:04;6.82;;;2.97;;
65717;SDS011;52445;52.466;-1.016;2023-04-01T23:02:42;5.80;;;2.35;;
65717;SDS011;52445;52.466;-1.016;2023-04-01T23:05:14;4.80;;;2.10;;
65717;SDS011;52445;52.466;-1.016;2023-04-01T23:10:31;5.15;;;2.85;;
65717;SDS011;52445;52.466;-1.016;2023-04-01T23:13:11;5.90;;;3.00;;
65717;SDS011;52445;52.466;-1.016;2023-04-01T23:15:42;4.63;;;2.40;;
65717;SDS011;52445;52.466;-1.016;2023-04-01T23:24:03;6.25;;;1.90;;
65717;SDS011;52445;52.466;-1.016;2023-04-01T23:26:43;3.67;;;2.45;;
65717;SDS011;52445;52.466;-1.016;2023-04-01T23:29:19;4.95;;;3.05;;
65717;SDS011;52445;52.466;-1.016;2023-04-01T23:31:47;6.97;;;3.15;;
65717;SDS011;52445;52.466;-1.016;2023-04-01T23:34:24;5.53;;;3.72;;
65717;SDS011;52445;52.466;-1.016;2023-04-01T23:36:55;3.38;;;1.33;;
65717;SDS011;52445;52.466;-1.016;2023-04-01T23:39:26;3.58;;;1.73;;
65717;SDS011;52445;52.466;-1.016;2023-04-01T23:42:00;5.10;;;2.78;;
65717;SDS011;52445;52.466;-1.016;2023-04-01T23:44:29;6.35;;;3.55;;
65717;SDS011;52445;52.466;-1.016;2023-04-01T23:46:58;5.00;;;3.10;;
65717;SDS011;52445;52.466;-1.016;2023-04-01T23:49:33;5.22;;;1.55;;
65717;SDS011;52445;52.466;-1.016;2023-04-01T23:52:13;3.50;;;2.83;;
65717;SDS011;52445;52.466;-1.016;2023-04-01T23:57:26;3.08;;;1.80;;
